createdAt,value
2023-04-30T05:33:00.995Z,16.75
2023-04-30T05:35:27.469Z,17.00
2023-04-30T05:37:54.184Z,20.50
2023-04-30T05:40:21.011Z,16.00
2023-04-30T05:42:49.737Z,18.50
2023-04-30T05:45:17.482Z,17.50
2023-04-30T05:47:44.028Z,16.00
2023-04-30T05:50:10.806Z,22.75
2023-04-30T05:52:37.230Z,16.25
2023-04-30T05:55:03.665Z,17.75
2023-04-30T05:57:30.289Z,18.00
2023-04-30T05:59:57.677Z,17.75
2023-04-30T06:02:24.281Z,15.00
2023-04-30T06:04:51.218Z,21.25
2023-04-30T06:07:17.604Z,14.25
2023-04-30T06:09:44.032Z,6.25
2023-04-30T06:12:10.698Z,16.75
2023-04-30T06:14:37.289Z,18.50
2023-04-30T06:17:03.693Z,14.25
2023-04-30T06:19:30.105Z,9.75
2023-04-30T06:21:56.626Z,11.00
2023-04-30T06:24:23.052Z,15.25
2023-04-30T06:26:49.481Z,18.25
2023-04-30T06:29:16.004Z,13.50
2023-04-30T06:31:42.463Z,11.50
2023-04-30T06:34:08.990Z,13.50
2023-04-30T06:36:35.493Z,9.75
2023-04-30T06:39:01.884Z,14.75
2023-04-30T06:41:28.310Z,13.50
2023-04-30T06:43:54.756Z,12.00
2023-04-30T06:46:21.444Z,8.00
2023-04-30T06:48:47.867Z,10.00
2023-04-30T06:51:14.275Z,8.25
2023-04-30T06:53:40.687Z,5.00
2023-04-30T06:56:07.374Z,11.50
2023-04-30T06:58:33.790Z,4.25
2023-04-30T07:01:01.099Z,10.75
2023-04-30T07:03:28.171Z,12.75
2023-04-30T07:05:54.997Z,27.50
2023-04-30T07:08:22.379Z,6.50
2023-04-30T07:10:48.848Z,8.75
2023-04-30T07:13:16.611Z,7.25
2023-04-30T07:15:43.200Z,11.75
2023-04-30T07:18:10.355Z,9.75
2023-04-30T07:20:36.846Z,8.50
2023-04-30T07:23:03.489Z,15.75
2023-04-30T07:25:29.956Z,9.75
2023-04-30T07:27:56.515Z,12.00
2023-04-30T07:30:24.873Z,15.75
2023-04-30T07:32:51.724Z,7.75
2023-04-30T07:35:18.200Z,18.25
2023-04-30T07:37:44.723Z,11.75
2023-04-30T07:40:22.033Z,17.50
2023-04-30T07:42:55.291Z,8.25
2023-04-30T07:45:21.700Z,8.00
2023-04-30T07:47:48.854Z,10.00
2023-04-30T07:50:15.368Z,11.25
2023-04-30T07:52:42.162Z,8.00
2023-04-30T07:55:08.906Z,9.75
2023-04-30T07:57:35.494Z,6.00
2023-04-30T08:00:02.189Z,11.00
2023-04-30T08:02:28.863Z,11.00
2023-04-30T08:04:55.358Z,7.50
2023-04-30T08:07:22.380Z,10.50
2023-04-30T08:09:48.771Z,15.75
2023-04-30T08:12:16.724Z,9.00
2023-04-30T08:14:43.154Z,10.25
2023-04-30T08:17:09.660Z,10.00
2023-04-30T08:19:36.022Z,7.75
2023-04-30T08:22:02.445Z,7.25
2023-04-30T08:24:28.812Z,6.75
2023-04-30T08:26:55.318Z,13.25
2023-04-30T08:29:21.781Z,5.25
2023-04-30T08:31:48.304Z,5.50
2023-04-30T08:34:14.939Z,12.50
2023-04-30T08:36:41.522Z,13.00
2023-04-30T08:39:07.996Z,10.50
2023-04-30T08:41:36.394Z,7.00
2023-04-30T08:44:04.343Z,6.50
2023-04-30T08:46:33.814Z,7.00
2023-04-30T08:49:00.570Z,8.50
2023-04-30T08:51:27.769Z,6.50
2023-04-30T08:53:55.232Z,4.75
2023-04-30T08:56:23.102Z,5.50
2023-04-30T08:58:51.278Z,7.00
2023-04-30T09:01:17.820Z,8.75
2023-04-30T09:03:44.388Z,5.50
2023-04-30T09:06:15.296Z,6.50
2023-04-30T09:08:47.042Z,8.50
2023-04-30T09:11:23.975Z,8.00
2023-04-30T09:13:52.707Z,6.25
2023-04-30T09:16:19.969Z,4.25
2023-04-30T09:18:47.460Z,6.75
2023-04-30T09:21:14.150Z,8.75
2023-04-30T09:23:57.037Z,6.00
2023-04-30T09:26:27.561Z,6.50
2023-04-30T09:28:57.909Z,3.75
2023-04-30T09:31:27.570Z,7.75
2023-04-30T09:33:54.431Z,6.25
2023-04-30T09:36:20.969Z,4.50
2023-04-30T09:38:47.471Z,4.00
2023-04-30T09:41:27.734Z,3.00
2023-04-30T09:43:57.631Z,5.25
2023-04-30T09:46:44.560Z,6.00
2023-04-30T09:49:11.250Z,4.75
2023-04-30T09:51:53.299Z,8.25
2023-04-30T09:54:21.680Z,3.75
2023-04-30T09:56:48.439Z,4.00
2023-04-30T09:59:16.396Z,7.50
2023-04-30T10:01:42.968Z,3.50
2023-04-30T10:04:09.591Z,8.00
2023-04-30T10:06:36.577Z,5.00
2023-04-30T10:09:05.300Z,5.75
2023-04-30T10:11:33.076Z,3.75
2023-04-30T10:14:03.824Z,5.50
2023-04-30T10:16:34.801Z,3.00
2023-04-30T10:19:05.996Z,5.25
2023-04-30T10:21:32.703Z,4.00
2023-04-30T10:23:59.789Z,5.25
2023-04-30T10:26:26.988Z,3.75
2023-04-30T10:28:54.341Z,2.75
2023-04-30T10:31:21.564Z,4.25
2023-04-30T10:34:08.411Z,5.00
2023-04-30T10:36:41.332Z,3.00
2023-04-30T10:39:08.460Z,4.75
2023-04-30T10:41:34.916Z,1.25
2023-04-30T10:44:02.316Z,5.25
2023-04-30T10:46:29.064Z,4.25
2023-04-30T10:48:55.836Z,2.50
2023-04-30T10:51:23.719Z,3.75
2023-04-30T10:53:54.223Z,2.25
2023-04-30T10:56:33.520Z,4.00
2023-04-30T10:59:02.563Z,3.00
2023-04-30T11:01:29.584Z,4.25
2023-04-30T11:04:09.616Z,3.00
2023-04-30T11:06:55.693Z,3.75
2023-04-30T11:09:39.196Z,3.00
2023-04-30T11:12:10.915Z,3.50
2023-04-30T11:14:41.487Z,3.50
2023-04-30T11:17:09.124Z,4.00
2023-04-30T11:19:35.531Z,3.00
2023-04-30T11:22:04.923Z,4.25
2023-04-30T11:24:50.015Z,3.00
2023-04-30T11:27:35.373Z,2.00
2023-04-30T11:30:02.619Z,4.25
2023-04-30T11:32:34.329Z,5.00
2023-04-30T11:35:04.948Z,3.25
2023-04-30T11:37:32.724Z,3.25
2023-04-30T11:40:04.062Z,1.00
2023-04-30T11:42:31.388Z,3.00
2023-04-30T11:45:05.089Z,3.25
2023-04-30T11:47:47.083Z,3.00
2023-04-30T11:50:15.650Z,3.00
2023-04-30T11:52:42.778Z,3.00
2023-04-30T11:55:16.507Z,2.00
2023-04-30T11:57:43.674Z,6.25
2023-04-30T12:00:14.276Z,3.00
2023-04-30T12:02:42.374Z,2.00
2023-04-30T12:05:13.626Z,3.25
2023-04-30T12:07:40.220Z,3.25
2023-04-30T12:10:07.225Z,4.00
2023-04-30T12:12:36.819Z,4.25
2023-04-30T12:15:11.178Z,5.00
2023-04-30T12:17:37.633Z,3.00
2023-04-30T12:20:05.320Z,3.00
2023-04-30T12:22:32.022Z,2.00
2023-04-30T12:24:59.669Z,4.25
2023-04-30T12:27:26.115Z,2.75
2023-04-30T12:29:55.032Z,5.50
2023-04-30T12:32:22.100Z,3.25
2023-04-30T12:34:48.899Z,3.25
2023-04-30T12:37:16.628Z,2.00
2023-04-30T12:39:43.410Z,3.75
2023-04-30T12:42:10.404Z,2.00
2023-04-30T12:44:44.353Z,3.50
2023-04-30T12:47:10.837Z,4.50
2023-04-30T12:49:37.292Z,3.25
2023-04-30T12:52:08.585Z,2.75
2023-04-30T12:54:35.989Z,4.75
2023-04-30T12:57:03.652Z,5.00
2023-04-30T12:59:30.850Z,4.00
2023-04-30T13:02:06.419Z,4.25
2023-04-30T13:04:33.002Z,2.00
2023-04-30T13:07:01.657Z,3.00
2023-04-30T13:09:28.136Z,7.25
2023-04-30T13:11:54.673Z,4.50
2023-04-30T13:14:21.136Z,3.00
2023-04-30T13:16:48.075Z,3.50
2023-04-30T13:19:14.473Z,1.00
2023-04-30T13:21:41.236Z,0.25
2023-04-30T13:24:07.615Z,2.00
2023-04-30T13:26:34.123Z,2.50
2023-04-30T13:29:00.594Z,4.00
2023-04-30T13:31:27.302Z,3.25
2023-04-30T13:33:54.968Z,4.50
2023-04-30T13:36:21.542Z,5.00
2023-04-30T13:38:47.916Z,2.25
2023-04-30T13:41:14.540Z,3.00
2023-04-30T13:43:44.834Z,1.00
2023-04-30T13:46:11.390Z,4.00
2023-04-30T13:48:38.350Z,4.00
2023-04-30T13:51:04.887Z,1.25
2023-04-30T13:53:31.494Z,0.00
2023-04-30T13:55:59.383Z,3.00
2023-04-30T13:58:26.354Z,3.00
2023-04-30T14:00:52.830Z,3.50
2023-04-30T14:03:19.315Z,2.25
2023-04-30T14:05:46.825Z,4.50
2023-04-30T14:08:13.233Z,4.50
2023-04-30T14:10:39.609Z,4.25
2023-04-30T14:13:06.427Z,3.75
2023-04-30T14:15:32.986Z,4.00
2023-04-30T14:18:00.601Z,4.00
2023-04-30T14:20:27.674Z,2.75
2023-04-30T14:22:54.104Z,3.50
2023-04-30T14:25:20.651Z,0.00
2023-04-30T14:27:47.621Z,2.00
2023-04-30T14:30:14.186Z,7.25
2023-04-30T14:32:40.767Z,3.00
2023-04-30T14:35:07.622Z,3.50
2023-04-30T14:37:34.182Z,7.25
2023-04-30T14:40:02.133Z,4.00
2023-04-30T14:42:28.747Z,2.50
2023-04-30T14:44:55.148Z,5.75
2023-04-30T14:47:22.747Z,6.00
2023-04-30T14:49:52.121Z,6.00
2023-04-30T14:52:19.901Z,8.00
2023-04-30T14:54:46.345Z,4.50
2023-04-30T14:57:12.872Z,5.50
2023-04-30T14:59:40.363Z,3.75
2023-04-30T15:02:07.273Z,5.25
2023-04-30T15:04:33.860Z,3.00
2023-04-30T15:07:01.042Z,0.00
2023-04-30T15:09:27.903Z,5.00
2023-04-30T15:11:54.471Z,6.00
2023-04-30T15:14:20.868Z,2.50
2023-04-30T15:16:47.297Z,1.00
2023-04-30T15:19:13.746Z,1.75
2023-04-30T15:21:40.508Z,2.00
2023-04-30T15:24:07.344Z,3.00
2023-04-30T15:26:33.725Z,2.00
2023-04-30T15:29:00.442Z,2.25
2023-04-30T15:31:27.465Z,4.00
2023-04-30T15:33:53.890Z,5.25
2023-04-30T15:36:22.445Z,3.00
2023-04-30T15:38:48.909Z,1.00
2023-04-30T15:41:15.295Z,4.00
2023-04-30T15:43:41.670Z,4.00
2023-04-30T15:46:08.299Z,3.00
2023-04-30T15:48:34.954Z,2.00
2023-04-30T15:51:01.582Z,2.00
2023-04-30T15:53:28.018Z,1.75
2023-04-30T15:55:54.862Z,6.00
2023-04-30T15:58:21.355Z,2.75
2023-04-30T16:00:47.949Z,4.00
2023-04-30T16:03:14.542Z,1.75
2023-04-30T16:05:41.836Z,5.00
2023-04-30T16:08:09.060Z,1.25
2023-04-30T16:10:36.108Z,3.75
2023-04-30T16:13:02.845Z,5.00
2023-04-30T16:15:30.386Z,4.50
2023-04-30T16:17:57.269Z,6.25
2023-04-30T16:20:24.088Z,1.50
2023-04-30T16:22:50.737Z,6.00
2023-04-30T16:25:17.402Z,7.25
2023-04-30T16:27:44.209Z,3.25
2023-04-30T16:30:10.824Z,14.50
2023-04-30T16:32:37.448Z,6.00
2023-04-30T16:35:04.204Z,6.00
2023-04-30T16:37:31.189Z,8.75
2023-04-30T16:39:58.084Z,0.75
2023-04-30T16:42:24.828Z,13.75
2023-04-30T16:44:51.366Z,5.25
2023-04-30T16:47:18.838Z,9.50
2023-04-30T16:49:45.312Z,16.00
2023-04-30T16:52:12.710Z,3.75
2023-04-30T16:54:39.110Z,7.25
2023-04-30T16:57:05.698Z,13.25
2023-04-30T16:59:32.354Z,10.75
2023-04-30T17:02:00.652Z,22.00
2023-04-30T17:04:27.308Z,5.50
2023-04-30T17:06:53.782Z,29.00
2023-04-30T17:09:20.164Z,29.75
2023-04-30T17:11:47.113Z,29.25
2023-04-30T17:14:13.524Z,9.75
2023-04-30T17:16:40.028Z,7.25
2023-04-30T17:19:07.773Z,5.25
2023-04-30T17:21:34.350Z,15.50
2023-04-30T17:24:01.718Z,12.25
2023-04-30T17:26:28.157Z,11.75
2023-04-30T17:28:54.572Z,17.25
2023-04-30T17:31:21.021Z,18.50
2023-04-30T17:33:47.543Z,14.00
2023-04-30T17:36:14.065Z,16.25
2023-04-30T17:38:40.537Z,11.50
2023-04-30T17:41:07.134Z,40.50
2023-04-30T17:43:33.550Z,32.67
2023-04-30T17:46:00.058Z,31.50
2023-04-30T17:48:26.855Z,31.33
2023-04-30T17:50:53.306Z,23.00
2023-04-30T17:53:19.692Z,54.00
2023-04-30T17:55:46.202Z,50.50
2023-04-30T17:58:12.687Z,42.00
2023-04-30T18:00:40.449Z,40.75
2023-04-30T18:03:07.341Z,68.00
2023-04-30T18:05:35.573Z,69.00
2023-04-30T18:08:02.387Z,55.00
2023-04-30T18:10:28.822Z,67.75
2023-04-30T18:12:57.573Z,81.25
2023-04-30T18:15:24.282Z,140.33
2023-04-30T18:17:50.713Z,117.50
2023-04-30T18:20:17.237Z,75.00
2023-04-30T18:22:43.822Z,85.25
2023-04-30T18:25:11.349Z,75.00
2023-04-30T18:27:37.786Z,57.25
2023-04-30T18:30:04.740Z,71.50
2023-04-30T18:32:31.436Z,56.00
2023-04-30T18:34:58.055Z,20.00
2023-04-30T18:37:24.886Z,14.25
2023-04-30T18:39:51.790Z,16.50
2023-04-30T18:42:18.240Z,19.75
2023-04-30T18:44:44.695Z,13.50
2023-04-30T18:47:11.859Z,15.75
2023-04-30T18:49:41.422Z,17.00
2023-04-30T18:52:45.146Z,16.75
2023-04-30T21:19:45.246Z,28.25
2023-04-30T21:22:38.620Z,38.25
2023-04-30T21:28:13.126Z,49.75
2023-04-30T21:39:10.011Z,52.75
2023-04-30T21:44:33.404Z,38.25
2023-04-30T21:47:04.151Z,36.00
2023-04-30T21:49:48.205Z,41.50
2023-04-30T21:52:23.569Z,47.50
2023-04-30T21:55:00.904Z,54.75
2023-04-30T22:00:21.833Z,64.25
2023-04-30T22:02:52.292Z,64.25
2023-04-30T22:05:38.500Z,76.75
2023-04-30T22:08:11.399Z,72.50
2023-04-30T22:10:44.683Z,70.25
2023-04-30T22:16:18.732Z,61.25
2023-04-30T22:18:49.235Z,67.25
2023-04-30T22:24:07.630Z,61.00
2023-04-30T22:26:36.450Z,56.75
2023-04-30T22:29:08.161Z,66.00
2023-04-30T22:31:36.075Z,68.25
2023-04-30T22:34:04.683Z,65.00
2023-04-30T22:36:35.078Z,63.75
2023-04-30T22:39:11.400Z,75.25
2023-04-30T22:41:48.141Z,77.50
2023-04-30T22:44:18.748Z,77.00
2023-04-30T22:46:47.198Z,71.75
2023-04-30T22:49:30.082Z,75.50
2023-04-30T22:52:04.291Z,82.50
2023-04-30T22:54:35.357Z,74.50
2023-04-30T22:57:09.339Z,86.00
2023-04-30T22:59:38.775Z,78.50
2023-04-30T23:02:07.021Z,76.75
2023-04-30T23:04:36.717Z,74.25
2023-04-30T23:07:04.804Z,69.00
2023-04-30T23:09:31.991Z,75.25
2023-04-30T23:11:59.179Z,78.50
2023-04-30T23:14:27.386Z,71.50
2023-04-30T23:16:56.613Z,65.25
2023-04-30T23:19:24.618Z,61.75
2023-04-30T23:21:53.398Z,67.75
2023-04-30T23:24:21.032Z,60.25
2023-04-30T23:26:52.332Z,70.00
2023-04-30T23:29:24.305Z,59.75
2023-04-30T23:31:54.715Z,57.50
2023-04-30T23:34:21.546Z,64.75
2023-04-30T23:36:49.666Z,62.00
2023-04-30T23:39:17.222Z,68.75
2023-04-30T23:41:44.805Z,53.25
2023-04-30T23:44:13.466Z,70.75
2023-04-30T23:46:42.605Z,84.50
2023-04-30T23:49:19.096Z,85.75
2023-04-30T23:51:46.836Z,86.75
2023-04-30T23:54:13.760Z,79.50
2023-04-30T23:56:40.261Z,75.75
2023-04-30T23:59:16.307Z,85.00
